createdAt,value
2018-09-27T00:00:21.992Z,5.50
2018-09-27T00:01:21.968Z,5.30
2018-09-27T00:02:21.966Z,5.90
2018-09-27T00:03:21.932Z,5.30
2018-09-27T00:04:21.910Z,5.30
2018-09-27T00:05:21.900Z,5.80
2018-09-27T00:06:21.873Z,5.40
2018-09-27T00:07:21.854Z,5.60
2018-09-27T00:08:21.832Z,5.10
2018-09-27T00:09:21.812Z,5.30
2018-09-27T00:10:21.793Z,5.30
2018-09-27T00:11:21.773Z,5.40
2018-09-27T00:12:21.761Z,5.80
2018-09-27T00:13:21.734Z,5.50
2018-09-27T00:14:21.712Z,5.20
2018-09-27T00:15:21.698Z,5.30
2018-09-27T00:16:21.676Z,5.80
2018-09-27T00:17:21.655Z,5.40
2018-09-27T00:18:21.637Z,5.40
2018-09-27T00:19:21.634Z,5.20
2018-09-27T00:20:21.604Z,5.20
2018-09-27T00:21:21.575Z,5.70
2018-09-27T00:22:21.557Z,5.60
2018-09-27T00:23:21.539Z,5.50
2018-09-27T00:24:21.519Z,5.90
2018-09-27T00:25:21.498Z,6.10
2018-09-27T00:26:21.480Z,6.00
2018-09-27T00:27:21.459Z,5.80
2018-09-27T00:28:21.438Z,5.50
2018-09-27T00:29:21.420Z,5.60
2018-09-27T00:30:21.401Z,6.10
2018-09-27T00:31:21.380Z,6.20
2018-09-27T00:32:21.369Z,5.90
2018-09-27T00:33:21.339Z,5.50
2018-09-27T00:34:21.323Z,5.20
2018-09-27T00:35:21.302Z,5.40
2018-09-27T00:36:21.282Z,6.00
2018-09-27T00:37:21.261Z,5.70
2018-09-27T00:38:21.244Z,5.50
2018-09-27T00:39:21.224Z,5.90
2018-09-27T00:40:21.202Z,6.10
2018-09-27T00:41:21.182Z,5.80
2018-09-27T00:42:21.165Z,5.90
2018-09-27T00:43:21.144Z,5.50
2018-09-27T00:44:21.125Z,6.00
2018-09-27T00:45:21.105Z,6.30
2018-09-27T00:46:21.084Z,5.70
2018-09-27T00:47:21.067Z,5.40
2018-09-27T00:48:21.047Z,5.70
2018-09-27T00:49:21.026Z,6.00
2018-09-27T00:50:21.010Z,5.50
2018-09-27T00:51:20.988Z,6.30
2018-09-27T00:52:20.966Z,6.20
2018-09-27T00:53:20.948Z,5.90
2018-09-27T00:54:20.927Z,5.80
2018-09-27T00:55:20.909Z,6.00
2018-09-27T00:56:20.888Z,6.20
2018-09-27T00:57:20.872Z,5.60
2018-09-27T00:58:20.849Z,5.70
2018-09-27T00:59:20.830Z,5.90
2018-09-27T01:00:20.811Z,6.10
2018-09-27T01:01:20.789Z,5.50
2018-09-27T01:02:20.770Z,5.80
2018-09-27T01:03:20.757Z,5.50
2018-09-27T01:04:20.732Z,5.40
2018-09-27T01:05:20.711Z,5.40
2018-09-27T01:06:20.691Z,6.20
2018-09-27T01:07:20.679Z,5.70
2018-09-27T01:08:20.651Z,6.10
2018-09-27T01:09:20.633Z,6.20
2018-09-27T01:10:20.614Z,5.60
2018-09-27T01:11:20.593Z,6.00
2018-09-27T01:12:20.570Z,5.70
2018-09-27T01:13:20.564Z,5.90
2018-09-27T01:14:20.534Z,5.90
2018-09-27T01:15:20.515Z,5.60
2018-09-27T01:16:20.493Z,6.20
2018-09-27T01:17:20.480Z,5.90
2018-09-27T01:18:20.460Z,5.80
2018-09-27T01:19:20.439Z,5.80
2018-09-27T01:20:20.414Z,5.90
2018-09-27T01:21:20.397Z,5.80
2018-09-27T01:22:20.376Z,5.80
2018-09-27T01:23:20.356Z,6.40
2018-09-27T01:24:20.335Z,5.60
2018-09-27T01:25:20.322Z,5.90
2018-09-27T01:26:20.297Z,5.30
2018-09-27T01:27:20.280Z,6.20
2018-09-27T01:28:20.258Z,6.00
2018-09-27T01:29:20.237Z,5.30
2018-09-27T01:30:20.219Z,5.50
2018-09-27T01:31:20.199Z,5.70
2018-09-27T01:32:20.180Z,5.50
2018-09-27T01:33:20.159Z,6.00
2018-09-27T01:34:20.140Z,5.70
2018-09-27T01:35:20.118Z,6.80
2018-09-27T01:36:20.098Z,5.50
2018-09-27T01:37:20.078Z,6.10
2018-09-27T01:38:20.059Z,7.10
2018-09-27T01:39:20.043Z,6.40
2018-09-27T01:40:20.030Z,6.50
2018-09-27T01:41:20.004Z,6.00
2018-09-27T01:42:19.979Z,5.90
2018-09-27T01:43:19.968Z,6.60
2018-09-27T01:44:19.940Z,6.30
2018-09-27T01:45:19.922Z,6.30
2018-09-27T01:46:19.902Z,5.90
2018-09-27T01:47:19.884Z,5.80
2018-09-27T01:48:19.861Z,6.20
2018-09-27T01:49:19.843Z,6.20
2018-09-27T01:50:19.831Z,5.30
2018-09-27T01:51:19.807Z,6.00
2018-09-27T01:52:19.784Z,6.00
2018-09-27T01:53:19.765Z,5.90
2018-09-27T01:54:19.745Z,5.30
2018-09-27T01:55:19.726Z,5.40
2018-09-27T01:56:19.706Z,6.30
2018-09-27T01:57:19.686Z,6.40
2018-09-27T01:58:19.665Z,6.00
2018-09-27T01:59:19.647Z,6.60
2018-09-27T02:00:19.626Z,6.20
2018-09-27T02:01:19.608Z,5.80
2018-09-27T02:02:19.590Z,6.40
2018-09-27T02:03:19.571Z,6.30
2018-09-27T02:04:19.547Z,5.90
2018-09-27T02:05:19.530Z,6.40
2018-09-27T02:06:19.509Z,5.90
2018-09-27T02:07:19.492Z,5.60
2018-09-27T02:08:19.470Z,6.00
2018-09-27T02:09:19.448Z,6.20
2018-09-27T02:10:19.429Z,5.70
2018-09-27T02:11:19.409Z,6.30
2018-09-27T02:12:19.387Z,5.90
2018-09-27T02:13:19.369Z,5.90
2018-09-27T02:14:19.350Z,6.10
2018-09-27T02:15:19.333Z,6.50
2018-09-27T02:16:19.311Z,6.00
2018-09-27T02:17:19.294Z,6.80
2018-09-27T02:18:19.273Z,6.10
2018-09-27T02:19:19.252Z,6.20
2018-09-27T02:20:19.230Z,6.60
2018-09-27T02:21:19.210Z,6.10
2018-09-27T02:22:19.191Z,6.20
2018-09-27T02:23:19.171Z,6.20
2018-09-27T02:24:19.154Z,6.20
2018-09-27T02:25:19.135Z,6.40
2018-09-27T02:26:19.112Z,6.30
2018-09-27T02:27:19.093Z,6.10
2018-09-27T02:28:19.072Z,6.50
2018-09-27T02:29:19.053Z,6.30
2018-09-27T02:30:19.032Z,5.90
2018-09-27T02:31:19.016Z,6.30
2018-09-27T02:32:18.993Z,6.20
2018-09-27T02:33:18.983Z,6.40
2018-09-27T02:34:18.956Z,6.10
2018-09-27T02:35:18.942Z,6.50
2018-09-27T02:36:18.913Z,6.70
2018-09-27T02:37:18.898Z,6.40
2018-09-27T02:38:18.875Z,5.90
2018-09-27T02:39:18.856Z,6.20
2018-09-27T02:40:18.835Z,5.90
2018-09-27T02:41:18.819Z,6.10
2018-09-27T02:42:18.800Z,6.70
2018-09-27T02:43:18.777Z,6.60
2018-09-27T02:44:18.756Z,6.20
2018-09-27T02:45:18.735Z,6.50
2018-09-27T02:46:18.730Z,6.10
2018-09-27T02:47:18.704Z,6.70
2018-09-27T02:48:18.676Z,6.30
2018-09-27T02:49:18.661Z,6.70
2018-09-27T02:50:18.638Z,6.50
2018-09-27T02:51:18.625Z,6.50
2018-09-27T02:52:18.597Z,6.80
2018-09-27T02:53:18.579Z,6.10
2018-09-27T02:54:18.558Z,6.40
2018-09-27T02:55:18.540Z,6.80
2018-09-27T02:56:18.516Z,6.40
2018-09-27T02:57:18.499Z,6.20
2018-09-27T02:58:18.487Z,6.70
2018-09-27T02:59:18.459Z,6.20
2018-09-27T03:00:18.440Z,6.70
2018-09-27T03:01:18.418Z,5.30
2018-09-27T03:02:18.399Z,6.80
2018-09-27T03:03:18.381Z,6.00
2018-09-27T03:04:18.361Z,6.40
2018-09-27T03:05:18.340Z,6.30
2018-09-27T03:06:18.323Z,6.40
2018-09-27T03:07:18.304Z,5.70
2018-09-27T03:08:18.281Z,6.10
2018-09-27T03:09:18.270Z,6.60
2018-09-27T03:10:18.243Z,6.20
2018-09-27T03:11:18.227Z,6.70
2018-09-27T03:12:18.201Z,6.40
2018-09-27T03:13:18.188Z,6.30
2018-09-27T03:14:18.165Z,6.10
2018-09-27T03:15:18.152Z,6.20
2018-09-27T03:16:18.124Z,6.60
2018-09-27T03:17:18.114Z,6.90
2018-09-27T03:18:18.086Z,6.40
2018-09-27T03:19:18.065Z,6.70
2018-09-27T03:20:18.043Z,6.50
2018-09-27T03:21:18.028Z,6.50
2018-09-27T03:22:18.005Z,6.30
2018-09-27T03:23:17.990Z,6.50
2018-09-27T03:24:17.978Z,6.60
2018-09-27T03:25:17.957Z,6.90
2018-09-27T03:26:17.932Z,6.50
2018-09-27T03:27:17.909Z,6.40
2018-09-27T03:28:17.892Z,6.20
2018-09-27T03:29:17.869Z,6.20
2018-09-27T03:30:17.855Z,6.30
2018-09-27T03:31:17.830Z,6.30
2018-09-27T03:32:17.819Z,6.40
2018-09-27T03:33:17.790Z,6.20
2018-09-27T03:34:17.772Z,6.40
2018-09-27T03:35:17.753Z,6.00
2018-09-27T03:36:17.736Z,5.80
2018-09-27T03:37:17.713Z,6.70
2018-09-27T03:38:17.692Z,6.30
2018-09-27T03:39:17.683Z,6.00
2018-09-27T03:40:17.744Z,5.60
2018-09-27T03:41:17.638Z,6.40
2018-09-27T03:42:17.636Z,6.40
2018-09-27T03:43:17.596Z,6.30
2018-09-27T03:44:17.578Z,5.90
2018-09-27T03:45:17.562Z,5.90
2018-09-27T03:46:17.537Z,6.40
2018-09-27T03:47:17.516Z,6.00
2018-09-27T03:48:17.497Z,6.10
2018-09-27T03:49:17.478Z,6.50
2018-09-27T03:50:17.460Z,6.00
2018-09-27T03:51:17.440Z,6.30
2018-09-27T03:52:17.418Z,5.90
2018-09-27T03:53:17.402Z,6.40
2018-09-27T03:54:17.381Z,6.70
2018-09-27T03:55:17.362Z,6.30
2018-09-27T03:56:17.343Z,5.70
2018-09-27T03:57:17.323Z,6.30
2018-09-27T03:58:17.304Z,6.50
2018-09-27T03:59:17.285Z,6.20
2018-09-27T04:00:17.263Z,6.50
2018-09-27T04:01:17.243Z,5.50
2018-09-27T04:02:17.227Z,6.00
2018-09-27T04:03:17.222Z,6.50
2018-09-27T04:04:17.189Z,6.10
2018-09-27T04:05:17.168Z,5.70
2018-09-27T04:06:17.150Z,6.00
2018-09-27T04:07:17.142Z,6.40
2018-09-27T04:08:17.111Z,5.80
2018-09-27T04:09:17.089Z,6.40
2018-09-27T04:10:17.069Z,6.30
2018-09-27T04:11:17.054Z,6.10
2018-09-27T04:12:17.032Z,6.10
2018-09-27T04:13:17.010Z,6.00
2018-09-27T04:14:16.991Z,5.70
2018-09-27T04:15:16.972Z,6.30
2018-09-27T04:16:16.955Z,6.50
2018-09-27T04:17:16.930Z,5.60
2018-09-27T04:18:16.916Z,6.30
2018-09-27T04:19:16.894Z,6.30
2018-09-27T04:20:16.873Z,5.90
2018-09-27T04:21:16.854Z,6.20
2018-09-27T04:22:16.836Z,6.50
2018-09-27T04:23:16.814Z,5.80
2018-09-27T04:24:16.796Z,5.70
2018-09-27T04:25:16.776Z,6.00
2018-09-27T04:26:16.758Z,6.10
2018-09-27T04:27:16.739Z,5.40
2018-09-27T04:28:16.725Z,6.70
2018-09-27T04:29:16.698Z,6.50
2018-09-27T04:30:16.679Z,6.20
2018-09-27T04:31:16.670Z,6.80
2018-09-27T04:32:16.639Z,6.70
2018-09-27T04:33:16.619Z,6.20
2018-09-27T04:34:16.597Z,6.20
2018-09-27T04:35:16.579Z,5.80
2018-09-27T04:36:16.559Z,6.60
2018-09-27T04:37:16.541Z,6.20
2018-09-27T04:38:16.522Z,6.60
2018-09-27T04:39:16.506Z,6.00
2018-09-27T04:40:16.482Z,6.60
2018-09-27T04:41:16.466Z,6.30
2018-09-27T04:42:16.443Z,6.30
2018-09-27T04:43:16.426Z,6.30
2018-09-27T04:44:16.404Z,6.20
2018-09-27T04:45:16.385Z,6.70
2018-09-27T04:46:16.365Z,6.20
2018-09-27T04:47:16.348Z,6.50
2018-09-27T04:48:16.324Z,6.20
2018-09-27T04:49:16.307Z,5.90
2018-09-27T04:50:16.286Z,6.60
2018-09-27T04:51:16.266Z,6.20
2018-09-27T04:52:16.246Z,6.50
2018-09-27T04:53:16.227Z,6.40
2018-09-27T04:54:16.207Z,6.10
2018-09-27T04:55:16.189Z,5.50
2018-09-27T04:56:16.168Z,6.20
2018-09-27T04:57:16.149Z,6.50
2018-09-27T04:58:16.130Z,6.40
2018-09-27T04:59:16.111Z,6.20
2018-09-27T05:00:16.091Z,6.20
2018-09-27T05:01:16.069Z,6.30
2018-09-27T05:02:16.058Z,6.10
2018-09-27T05:03:16.032Z,6.20
2018-09-27T05:04:16.011Z,6.70
2018-09-27T05:05:15.992Z,6.70
2018-09-27T05:06:15.995Z,5.80
2018-09-27T05:07:15.954Z,6.20
2018-09-27T05:08:15.936Z,6.00
2018-09-27T05:09:15.914Z,6.30
2018-09-27T05:10:15.895Z,7.10
2018-09-27T05:11:15.877Z,6.30
2018-09-27T05:12:15.867Z,6.70
2018-09-27T05:13:15.834Z,6.70
2018-09-27T05:14:15.816Z,6.70
2018-09-27T05:15:15.795Z,7.10
2018-09-27T05:16:15.786Z,6.60
2018-09-27T05:17:15.759Z,6.70
2018-09-27T05:18:15.737Z,6.80
2018-09-27T05:19:15.727Z,6.80
2018-09-27T05:20:15.695Z,5.90
2018-09-27T05:21:15.680Z,6.50
2018-09-27T05:22:15.657Z,6.60
2018-09-27T05:23:15.637Z,6.20
2018-09-27T05:24:15.618Z,6.90
2018-09-27T05:25:15.602Z,6.00
2018-09-27T05:26:15.580Z,6.10
2018-09-27T05:27:15.578Z,7.00
2018-09-27T05:28:15.542Z,6.50
2018-09-27T05:29:15.518Z,7.20
2018-09-27T05:30:15.504Z,6.50
2018-09-27T05:31:15.479Z,6.40
2018-09-27T05:32:15.460Z,6.30
2018-09-27T05:33:15.441Z,6.30
2018-09-27T05:34:15.424Z,6.80
2018-09-27T05:35:15.401Z,6.90
2018-09-27T05:36:15.398Z,7.00
2018-09-27T05:37:15.363Z,7.00
2018-09-27T05:38:15.345Z,6.90
2018-09-27T05:39:15.323Z,6.30
2018-09-27T05:40:15.303Z,7.20
2018-09-27T05:41:15.283Z,6.30
2018-09-27T05:42:15.263Z,6.30
2018-09-27T05:43:15.243Z,7.20
2018-09-27T05:44:15.222Z,6.70
2018-09-27T05:45:15.203Z,6.70
2018-09-27T05:46:15.182Z,6.10
2018-09-27T05:47:15.169Z,7.00
2018-09-27T05:48:15.147Z,7.00
2018-09-27T05:49:15.124Z,7.40
2018-09-27T05:50:15.105Z,6.60
2018-09-27T05:51:15.089Z,6.30
2018-09-27T05:52:15.073Z,6.70
2018-09-27T05:53:15.045Z,6.70
2018-09-27T05:54:15.029Z,7.10
2018-09-27T05:55:15.005Z,7.60
2018-09-27T05:56:14.989Z,6.10
2018-09-27T05:57:14.968Z,6.70
2018-09-27T05:58:14.947Z,6.30
2018-09-27T05:59:14.927Z,6.10
2018-09-27T06:00:14.905Z,7.30
2018-09-27T06:01:14.895Z,6.50
2018-09-27T06:02:14.869Z,7.00
2018-09-27T06:03:14.847Z,6.80
2018-09-27T06:04:14.870Z,6.70
2018-09-27T06:05:14.807Z,6.60
2018-09-27T06:06:14.788Z,7.20
2018-09-27T06:07:14.772Z,6.70
2018-09-27T06:08:14.753Z,6.90
2018-09-27T06:09:14.728Z,7.00
2018-09-27T06:10:14.709Z,6.80
2018-09-27T06:11:14.739Z,7.00
2018-09-27T06:12:14.673Z,6.80
2018-09-27T06:13:14.649Z,6.80
2018-09-27T06:14:14.630Z,7.10
2018-09-27T06:15:14.620Z,7.30
2018-09-27T06:16:14.591Z,7.00
2018-09-27T06:17:14.568Z,6.50
2018-09-27T06:18:14.550Z,7.70
2018-09-27T06:19:14.544Z,7.40
2018-09-27T06:20:14.510Z,6.70
2018-09-27T06:21:14.493Z,7.40
2018-09-27T06:22:14.469Z,6.60
2018-09-27T06:23:14.456Z,6.30
2018-09-27T06:24:14.428Z,6.80
2018-09-27T06:25:14.416Z,6.70
2018-09-27T06:26:14.478Z,7.00
2018-09-27T06:27:14.372Z,6.80
2018-09-27T06:28:14.350Z,6.80
2018-09-27T06:29:14.331Z,7.90
2018-09-27T06:30:14.311Z,7.80
2018-09-27T06:31:14.293Z,6.30
2018-09-27T06:32:14.272Z,6.80
2018-09-27T06:33:14.251Z,7.50
2018-09-27T06:34:14.233Z,7.30
2018-09-27T06:35:14.211Z,7.10
2018-09-27T06:36:14.192Z,7.00
2018-09-27T06:37:14.171Z,7.30
2018-09-27T06:38:14.152Z,6.90
2018-09-27T06:39:14.132Z,7.50
2018-09-27T06:40:14.112Z,7.10
2018-09-27T06:41:14.110Z,7.30
2018-09-27T06:42:14.077Z,7.70
2018-09-27T06:43:14.056Z,6.90
2018-09-27T06:44:14.031Z,8.10
2018-09-27T06:45:14.017Z,7.40
2018-09-27T06:46:13.992Z,6.80
2018-09-27T06:47:13.975Z,7.00
2018-09-27T06:48:13.982Z,6.60
2018-09-27T06:49:13.933Z,7.90
2018-09-27T06:50:13.918Z,7.10
2018-09-27T06:51:13.895Z,7.40
2018-09-27T06:52:13.873Z,7.60
2018-09-27T06:53:13.859Z,6.90
2018-09-27T06:54:13.839Z,7.10
2018-09-27T06:55:13.964Z,7.50
2018-09-27T06:56:13.885Z,7.10
2018-09-27T06:57:13.776Z,6.80
2018-09-27T06:58:13.756Z,7.80
2018-09-27T06:59:13.737Z,7.60
2018-09-27T07:00:13.724Z,7.20
2018-09-27T07:01:13.696Z,6.70
2018-09-27T07:02:13.676Z,7.30
2018-09-27T07:03:13.661Z,6.90
2018-09-27T07:04:13.640Z,7.30
2018-09-27T07:05:13.619Z,6.90
2018-09-27T07:06:13.597Z,7.90
2018-09-27T07:07:13.593Z,7.50
2018-09-27T07:08:13.558Z,7.80
2018-09-27T07:09:13.544Z,6.70
2018-09-27T07:10:13.523Z,7.90
2018-09-27T07:11:13.505Z,7.20
2018-09-27T07:12:13.618Z,7.00
2018-09-27T07:13:13.459Z,7.40
2018-09-27T07:14:13.441Z,7.00
2018-09-27T07:15:13.425Z,6.80
2018-09-27T07:16:13.400Z,7.10
2018-09-27T07:17:13.389Z,7.00
2018-09-27T07:18:13.362Z,7.00
2018-09-27T07:19:13.348Z,6.80
2018-09-27T07:20:13.335Z,7.10
2018-09-27T07:21:13.303Z,6.90
2018-09-27T07:22:13.284Z,7.30
2018-09-27T07:23:13.262Z,6.80
2018-09-27T07:24:13.244Z,7.10
2018-09-27T07:25:13.281Z,7.40
2018-09-27T07:26:13.206Z,7.50
2018-09-27T07:27:13.184Z,7.00
2018-09-27T07:28:13.166Z,7.30
2018-09-27T07:29:13.146Z,6.70
2018-09-27T07:30:13.126Z,7.20
2018-09-27T07:31:13.160Z,7.20
2018-09-27T07:32:13.087Z,7.90
2018-09-27T07:33:13.068Z,7.50
2018-09-27T07:34:13.050Z,7.90
2018-09-27T07:35:13.030Z,8.20
2018-09-27T07:36:13.016Z,8.20
2018-09-27T07:37:12.991Z,7.50
2018-09-27T07:38:12.973Z,7.70
2018-09-27T07:39:12.953Z,7.30
2018-09-27T07:40:12.932Z,7.90
2018-09-27T07:41:12.914Z,7.80
2018-09-27T07:42:12.893Z,8.40
2018-09-27T07:43:12.881Z,8.40
2018-09-27T07:44:12.856Z,8.50
2018-09-27T07:45:12.838Z,8.30
2018-09-27T07:46:12.820Z,7.90
2018-09-27T07:47:12.801Z,7.60
2018-09-27T07:48:12.782Z,8.50
2018-09-27T07:49:12.767Z,7.80
2018-09-27T07:50:12.740Z,8.20
2018-09-27T07:51:12.720Z,8.40
2018-09-27T07:52:12.701Z,8.70
2018-09-27T07:53:12.682Z,8.90
2018-09-27T07:54:12.711Z,8.50
2018-09-27T07:55:12.646Z,8.20
2018-09-27T07:56:12.628Z,8.50
2018-09-27T07:57:12.606Z,8.70
2018-09-27T07:58:12.595Z,8.70
2018-09-27T07:59:12.573Z,8.00
2018-09-27T08:00:12.554Z,8.30
2018-09-27T08:01:12.540Z,9.00
2018-09-27T08:02:12.512Z,8.90
2018-09-27T08:03:12.555Z,9.00
2018-09-27T08:04:12.483Z,8.90
2018-09-27T08:05:12.456Z,8.90
2018-09-27T08:06:12.434Z,9.20
2018-09-27T08:07:12.419Z,9.20
2018-09-27T08:08:12.399Z,9.40
2018-09-27T08:09:12.384Z,9.70
2018-09-27T08:10:12.363Z,9.40
2018-09-27T08:11:12.408Z,9.20
2018-09-27T08:12:12.329Z,10.20
2018-09-27T08:13:12.304Z,9.20
2018-09-27T08:14:12.286Z,8.70
2018-09-27T08:15:12.271Z,9.40
2018-09-27T08:16:12.249Z,9.60
2018-09-27T08:17:12.286Z,9.20
2018-09-27T08:18:12.211Z,9.30
2018-09-27T08:19:12.189Z,9.40
2018-09-27T08:20:12.170Z,8.90
2018-09-27T08:21:12.260Z,9.30
2018-09-27T08:22:12.134Z,9.50
2018-09-27T08:23:12.119Z,9.80
2018-09-27T08:24:12.168Z,9.50
2018-09-27T08:25:12.081Z,9.50
2018-09-27T08:26:12.058Z,9.30
2018-09-27T08:27:12.042Z,9.70
2018-09-27T08:28:12.025Z,9.80
2018-09-27T08:29:12.002Z,10.30
2018-09-27T08:30:11.984Z,9.50
2018-09-27T08:31:12.007Z,10.10
2018-09-27T08:32:11.948Z,9.80
2018-09-27T08:33:11.928Z,10.20
2018-09-27T08:34:11.911Z,9.80
2018-09-27T08:35:11.892Z,10.30
2018-09-27T08:36:11.872Z,11.00
2018-09-27T08:37:11.856Z,10.80
2018-09-27T08:38:11.876Z,10.00
2018-09-27T08:39:11.819Z,10.60
2018-09-27T08:40:11.798Z,9.30
2018-09-27T08:41:11.780Z,9.70
2018-09-27T08:42:11.765Z,10.00
2018-09-27T08:43:11.746Z,10.10
2018-09-27T08:44:11.724Z,10.10
2018-09-27T08:45:11.930Z,10.10
2018-09-27T08:46:11.695Z,10.50
2018-09-27T08:47:11.674Z,9.80
2018-09-27T08:48:11.655Z,11.00
2018-09-27T08:49:11.642Z,10.50
2018-09-27T08:50:11.621Z,10.30
2018-09-27T08:51:11.594Z,11.00
2018-09-27T08:52:11.578Z,10.00
2018-09-27T08:53:11.568Z,10.20
2018-09-27T08:54:11.542Z,11.10
2018-09-27T08:55:11.519Z,10.60
2018-09-27T08:56:11.618Z,10.50
2018-09-27T08:57:11.492Z,11.60
2018-09-27T08:58:11.468Z,11.10
2018-09-27T08:59:11.448Z,11.20
2018-09-27T09:00:11.430Z,10.20
2018-09-27T09:01:11.409Z,10.70
2018-09-27T09:02:11.392Z,11.50
2018-09-27T09:03:11.395Z,11.40
2018-09-27T09:04:11.356Z,11.70
2018-09-27T09:05:11.348Z,10.90
2018-09-27T09:06:11.319Z,11.50
2018-09-27T09:07:11.300Z,11.20
2018-09-27T09:08:11.280Z,10.70
2018-09-27T09:09:11.264Z,11.10
2018-09-27T09:10:11.245Z,10.20
2018-09-27T09:11:11.229Z,10.80
2018-09-27T09:12:11.258Z,11.50
2018-09-27T09:13:11.203Z,10.30
2018-09-27T09:14:11.176Z,10.60
2018-09-27T09:15:11.155Z,11.10
2018-09-27T09:16:11.142Z,11.10
2018-09-27T09:17:11.120Z,11.30
2018-09-27T09:18:11.097Z,12.30
2018-09-27T09:19:11.085Z,12.10
2018-09-27T09:20:11.066Z,11.90
2018-09-27T09:21:11.047Z,11.80
2018-09-27T09:22:11.027Z,13.00
2018-09-27T09:23:11.016Z,12.40
2018-09-27T09:24:10.995Z,12.50
2018-09-27T09:25:10.973Z,12.40
2018-09-27T09:26:11.083Z,12.00
2018-09-27T09:27:10.937Z,12.60
2018-09-27T09:28:10.923Z,12.40
2018-09-27T09:29:10.901Z,12.40
2018-09-27T09:30:10.886Z,13.00
2018-09-27T09:31:10.867Z,12.50
2018-09-27T09:32:10.849Z,13.60
2018-09-27T09:33:10.830Z,12.50
2018-09-27T09:34:10.815Z,12.70
2018-09-27T09:35:10.797Z,12.90
2018-09-27T09:36:10.777Z,12.60
2018-09-27T09:37:10.760Z,12.40
2018-09-27T09:38:10.742Z,13.30
2018-09-27T09:39:10.727Z,14.20
2018-09-27T09:40:10.705Z,13.70
2018-09-27T09:41:10.693Z,13.40
2018-09-27T09:42:10.693Z,13.00
2018-09-27T09:43:10.654Z,13.00
2018-09-27T09:44:10.638Z,13.60
2018-09-27T09:45:10.627Z,13.30
2018-09-27T09:46:10.606Z,13.50
2018-09-27T09:47:10.590Z,12.80
2018-09-27T09:48:10.563Z,12.80
2018-09-27T09:49:10.567Z,13.40
2018-09-27T09:50:10.647Z,12.70
2018-09-27T09:51:10.510Z,12.60
2018-09-27T09:52:10.492Z,12.90
2018-09-27T09:53:10.482Z,13.20
2018-09-27T09:54:10.463Z,13.50
2018-09-27T09:55:10.446Z,14.70
2018-09-27T09:56:10.428Z,13.70
2018-09-27T09:57:10.411Z,13.60
2018-09-27T09:58:10.392Z,14.00
2018-09-27T09:59:10.377Z,12.90
2018-09-27T10:00:10.359Z,14.60
2018-09-27T10:01:10.339Z,14.90
2018-09-27T10:02:10.333Z,14.00
2018-09-27T10:03:10.305Z,14.00
2018-09-27T10:04:10.290Z,14.20
2018-09-27T10:05:10.270Z,12.80
2018-09-27T10:06:10.260Z,13.70
2018-09-27T10:07:10.238Z,13.90
2018-09-27T10:08:10.225Z,14.60
2018-09-27T10:09:10.202Z,14.50
2018-09-27T10:10:10.184Z,14.30
2018-09-27T10:11:10.170Z,13.20
2018-09-27T10:12:10.162Z,14.40
2018-09-27T10:13:10.135Z,14.30
2018-09-27T10:14:10.117Z,15.20
2018-09-27T10:15:10.103Z,15.30
2018-09-27T10:16:10.085Z,14.80
2018-09-27T10:17:10.077Z,14.50
2018-09-27T10:18:10.051Z,14.70
2018-09-27T10:19:10.035Z,14.30
2018-09-27T10:20:10.018Z,13.70
2018-09-27T10:21:10.005Z,14.70
2018-09-27T10:22:10.100Z,13.50
2018-09-27T10:23:09.969Z,14.50
2018-09-27T10:24:09.957Z,14.80
2018-09-27T10:25:09.933Z,14.90
2018-09-27T10:26:09.920Z,12.60
2018-09-27T10:27:09.898Z,14.00
2018-09-27T10:28:09.880Z,13.90
2018-09-27T10:29:09.868Z,13.60
2018-09-27T10:30:09.850Z,14.20
2018-09-27T10:31:09.833Z,14.10
2018-09-27T10:32:09.817Z,14.00
2018-09-27T10:33:09.797Z,14.30
2018-09-27T10:34:09.840Z,14.20
2018-09-27T10:35:09.765Z,13.40
2018-09-27T10:36:09.747Z,14.20
2018-09-27T10:37:09.731Z,14.80
2018-09-27T10:38:09.717Z,13.90
2018-09-27T10:39:09.703Z,14.10
2018-09-27T10:40:09.680Z,13.00
2018-09-27T10:41:09.664Z,14.60
2018-09-27T10:42:09.647Z,13.90
2018-09-27T10:43:09.644Z,14.00
2018-09-27T10:44:09.622Z,13.50
2018-09-27T10:45:09.604Z,14.30
2018-09-27T10:46:09.585Z,13.40
2018-09-27T10:47:09.567Z,13.90
2018-09-27T10:48:09.549Z,14.10
2018-09-27T10:49:09.532Z,13.00
2018-09-27T10:50:09.518Z,12.90
2018-09-27T10:51:09.538Z,12.40
2018-09-27T10:52:09.482Z,12.40
2018-09-27T10:53:09.466Z,14.20
2018-09-27T10:54:09.458Z,12.60
2018-09-27T10:55:09.439Z,13.50
2018-09-27T10:56:09.441Z,12.70
2018-09-27T10:57:09.444Z,12.70
2018-09-27T10:58:09.391Z,13.30
2018-09-27T10:59:09.367Z,13.40
2018-09-27T11:00:09.350Z,13.90
2018-09-27T11:01:09.334Z,12.80
2018-09-27T11:02:09.320Z,12.70
2018-09-27T11:03:09.303Z,12.60
2018-09-27T11:04:09.317Z,12.00
2018-09-27T11:05:09.267Z,12.10
2018-09-27T11:06:09.253Z,12.30
2018-09-27T11:07:09.247Z,12.20
2018-09-27T11:08:09.219Z,13.70
2018-09-27T11:09:09.204Z,13.40
2018-09-27T11:10:09.199Z,13.20
2018-09-27T11:11:09.287Z,13.00
2018-09-27T11:12:09.155Z,12.60
2018-09-27T11:13:09.137Z,13.00
2018-09-27T11:14:09.121Z,12.90
2018-09-27T11:15:09.107Z,13.30
2018-09-27T11:16:09.099Z,11.60
2018-09-27T11:17:09.073Z,12.90
2018-09-27T11:18:09.057Z,12.70
2018-09-27T11:19:09.047Z,13.10
2018-09-27T11:20:09.025Z,13.50
2018-09-27T11:21:09.017Z,13.60
2018-09-27T11:22:09.060Z,13.20
2018-09-27T11:23:08.979Z,12.40
2018-09-27T11:24:08.962Z,13.70
2018-09-27T11:25:08.946Z,13.00
2018-09-27T11:26:08.947Z,12.50
2018-09-27T11:27:08.914Z,12.30
2018-09-27T11:28:08.901Z,12.20
2018-09-27T11:29:08.977Z,12.80
2018-09-27T11:30:08.869Z,11.30
2018-09-27T11:31:08.854Z,11.80
2018-09-27T11:32:08.833Z,11.30
2018-09-27T11:33:08.874Z,12.00
2018-09-27T11:34:08.806Z,10.70
2018-09-27T11:35:08.787Z,12.10
2018-09-27T11:36:08.803Z,11.60
2018-09-27T11:37:08.762Z,11.80
2018-09-27T11:38:08.738Z,11.80
2018-09-27T11:39:08.725Z,11.60
2018-09-27T11:40:08.710Z,11.80
2018-09-27T11:41:08.691Z,12.10
2018-09-27T11:42:08.676Z,10.70
2018-09-27T11:43:08.672Z,10.90
2018-09-27T11:44:08.764Z,11.60
2018-09-27T11:45:08.639Z,11.00
2018-09-27T11:46:08.614Z,11.00
2018-09-27T11:47:08.597Z,11.00
2018-09-27T11:48:08.584Z,9.90
2018-09-27T11:49:08.701Z,10.20
2018-09-27T11:50:08.593Z,10.40
2018-09-27T11:51:08.536Z,10.60
2018-09-27T11:52:08.523Z,10.50
2018-09-27T11:53:08.507Z,9.90
2018-09-27T11:54:08.504Z,9.50
2018-09-27T11:55:08.489Z,9.70
2018-09-27T11:56:08.523Z,11.20
2018-09-27T11:57:08.446Z,11.20
2018-09-27T11:58:08.431Z,11.60
2018-09-27T11:59:08.433Z,10.80
2018-09-27T12:00:08.396Z,9.90
2018-09-27T12:01:08.379Z,10.40
2018-09-27T12:02:08.362Z,9.80
2018-09-27T12:03:08.347Z,10.20
2018-09-27T12:04:08.331Z,9.90
2018-09-27T12:05:08.316Z,9.50
2018-09-27T12:06:08.302Z,9.90
2018-09-27T12:07:08.297Z,9.00
2018-09-27T12:08:08.274Z,9.00
2018-09-27T12:09:08.262Z,8.70
2018-09-27T12:10:08.246Z,8.80
2018-09-27T12:11:08.224Z,9.00
2018-09-27T12:12:08.343Z,8.40
2018-09-27T12:13:08.191Z,9.40
2018-09-27T12:14:08.186Z,9.40
2018-09-27T12:15:08.162Z,9.20
2018-09-27T12:16:08.145Z,10.00
2018-09-27T12:17:08.135Z,9.00
2018-09-27T12:18:08.114Z,9.20
2018-09-27T12:19:08.099Z,8.40
2018-09-27T12:20:08.221Z,8.10
2018-09-27T12:21:08.068Z,7.90
2018-09-27T12:22:08.053Z,7.80
2018-09-27T12:23:08.107Z,8.40
2018-09-27T12:24:08.023Z,8.00
2018-09-27T12:25:08.006Z,7.70
2018-09-27T12:26:07.998Z,8.00
2018-09-27T12:27:07.978Z,7.00
2018-09-27T12:28:07.968Z,7.60
2018-09-27T12:29:07.950Z,8.30
2018-09-27T12:30:07.931Z,8.50
2018-09-27T12:31:08.081Z,8.80
2018-09-27T12:32:07.901Z,8.40
2018-09-27T12:33:07.889Z,7.00
2018-09-27T12:34:08.035Z,7.40
2018-09-27T12:35:07.860Z,7.60
2018-09-27T12:36:07.851Z,7.00
2018-09-27T12:37:07.826Z,7.80
2018-09-27T12:38:07.807Z,7.20
2018-09-27T12:39:07.793Z,6.90
2018-09-27T12:40:07.785Z,7.20
2018-09-27T12:41:07.761Z,6.40
2018-09-27T12:42:07.963Z,6.80
2018-09-27T12:43:07.734Z,6.70
2018-09-27T12:44:07.725Z,6.50
2018-09-27T12:45:07.808Z,6.40
2018-09-27T12:46:07.814Z,5.80
2018-09-27T12:47:07.671Z,6.20
2018-09-27T12:48:07.758Z,6.40
2018-09-27T12:49:07.645Z,6.70
2018-09-27T12:50:07.624Z,7.00
2018-09-27T12:51:07.711Z,6.90
2018-09-27T12:52:07.808Z,6.80
2018-09-27T12:53:07.611Z,6.80
2018-09-27T12:54:07.566Z,6.40
2018-09-27T12:55:07.547Z,6.00
2018-09-27T12:56:07.551Z,6.00
2018-09-27T12:57:07.562Z,6.80
2018-09-27T12:58:07.507Z,6.50
2018-09-27T12:59:07.494Z,5.90
2018-09-27T13:00:07.475Z,6.40
2018-09-27T13:01:07.513Z,6.20
2018-09-27T13:02:07.541Z,5.90
2018-09-27T13:03:07.425Z,6.00
2018-09-27T13:04:07.477Z,6.00
2018-09-27T13:05:07.398Z,5.90
2018-09-27T13:06:07.381Z,4.90
2018-09-27T13:07:07.388Z,5.60
2018-09-27T13:08:07.349Z,5.60
2018-09-27T13:09:07.485Z,6.30
2018-09-27T13:10:07.329Z,5.00
2018-09-27T13:11:07.305Z,5.20